Time;durP1;ratioP1;P1;durP2;ratioP2;P2;SDS_P1;SDS_P2;PMS_P1;PMS_P2;Temp;Humidity;BMP_temperature;BMP_pressure;BME280_temperature;BME280_humidity;BME280_pressure;Samples;Min_cycle;Max_cycle;Signal;HPM_P1;HPM_P2
2022/08/08 00:00:16;;;;;;;4.07;2.20;;;;;;;17.95;83.34;101724.25;4985540;28;20042;-69
2022/08/08 00:02:53;;;;;;;2.63;1.50;;;;;;;17.75;83.06;101720.19;4991080;28;20475;-69
2022/08/08 00:05:36;;;;;;;4.97;2.15;;;;;;;17.94;82.61;101713.75;5007851;22;20068;-66
2022/08/08 00:08:21;;;;;;;4.28;2.08;;;;;;;17.52;83.66;101711.44;4994926;28;20034;-66
2022/08/08 00:11:11;;;;;;;3.60;2.35;;;;;;;17.52;84.20;101711.44;4998643;28;20026;-66
2022/08/08 00:13:42;;;;;;;3.75;1.73;;;;;;;17.61;84.38;101711.91;5002177;28;20277;-66
2022/08/08 00:16:12;;;;;;;2.63;2.03;;;;;;;17.67;84.26;101715.06;5001423;28;20050;-66
2022/08/08 00:18:40;;;;;;;3.30;1.92;;;;;;;17.68;84.07;101711.97;5007684;28;20113;-66
2022/08/08 00:21:13;;;;;;;2.83;1.77;;;;;;;17.63;84.34;101719.72;5006740;28;20513;-66
2022/08/08 00:23:47;;;;;;;2.40;1.60;;;;;;;17.57;84.99;101705.66;5004579;28;20558;-66
2022/08/08 00:26:24;;;;;;;2.83;1.50;;;;;;;17.46;85.33;101710.16;5005102;28;20091;-66
2022/08/08 00:28:57;;;;;;;3.95;2.10;;;;;;;17.40;85.47;101705.47;5007076;28;20065;-66
2022/08/08 00:31:30;;;;;;;2.53;1.73;;;;;;;17.52;85.12;101703.25;5007814;28;20128;-66
2022/08/08 00:37:13;;;;;;;4.45;1.98;;;;;;;17.50;84.14;101705.56;5008201;28;20494;-66
2022/08/08 00:40:07;;;;;;;4.40;2.17;;;;;;;17.09;85.84;101706.72;5002239;28;20704;-66
2022/08/08 00:42:46;;;;;;;3.00;1.80;;;;;;;17.06;86.84;101710.16;5000976;28;20029;-66
2022/08/08 00:45:40;;;;;;;3.38;1.88;;;;;;;17.33;85.46;101711.59;5005914;28;20061;-66
2022/08/08 00:48:47;;;;;;;5.82;1.70;;;;;;;17.52;84.27;101705.19;5007277;28;20114;-66
2022/08/08 00:51:51;;;;;;;2.80;1.65;;;;;;;17.37;84.06;101711.63;4997845;28;20042;-66
2022/08/08 00:54:32;;;;;;;5.15;2.25;;;;;;;17.33;83.71;101708.88;5019248;28;20034;-66
2022/08/08 00:57:10;;;;;;;;;;;;;;;17.30;84.77;101708.84;5007932;28;20049;-66
2022/08/08 00:59:58;;;;;;;1.75;1.42;;;;;;;17.08;85.03;101700.47;5008047;28;19913;-66
2022/08/08 01:02:56;;;;;;;1.98;1.33;;;;;;;17.05;86.20;101708.59;5008443;28;20026;-66
2022/08/08 01:05:54;;;;;;;2.88;1.80;;;;;;;17.18;85.35;101701.72;5011161;28;20494;-66
2022/08/08 01:08:58;;;;;;;2.97;1.80;;;;;;;17.00;85.29;101707.00;5010418;28;20469;-66
2022/08/08 01:12:11;;;;;;;1.95;1.30;;;;;;;16.88;86.77;101696.34;5006736;28;20026;-66
2022/08/08 01:14:54;;;;;;;2.55;1.70;;;;;;;17.07;85.71;101698.13;5005336;28;20034;-66
2022/08/08 01:17:32;;;;;;;2.72;1.60;;;;;;;17.13;86.05;101697.41;5013306;28;20034;-66
2022/08/08 01:20:32;;;;;;;3.17;1.58;;;;;;;17.23;85.28;101706.84;4998230;28;20041;-66
2022/08/08 01:23:24;;;;;;;2.13;1.33;;;;;;;17.09;85.72;101699.31;5009139;28;20034;-66
2022/08/08 01:26:10;;;;;;;3.10;2.00;;;;;;;16.99;86.12;101707.38;4998245;28;20034;-66
2022/08/08 01:28:41;;;;;;;3.05;2.05;;;;;;;17.07;86.47;101709.00;4994948;28;20044;-66
2022/08/08 01:31:25;;;;;;;;;;;;;;;16.95;86.47;101706.53;5011620;28;20159;-66
2022/08/08 01:34:12;;;;;;;2.85;1.38;;;;;;;16.90;86.99;101712.28;5015292;28;19944;-66
2022/08/08 01:37:07;;;;;;;2.28;1.48;;;;;;;16.99;86.97;101724.47;5009922;28;20088;-66
2022/08/08 01:40:11;;;;;;;2.72;1.63;;;;;;;16.86;86.72;101722.38;5007323;28;20084;-66
2022/08/08 01:42:57;;;;;;;2.75;1.88;;;;;;;16.95;86.19;101725.59;5000423;28;20029;-65
2022/08/08 01:46:01;;;;;;;3.60;1.92;;;;;;;17.09;85.57;101715.63;5002485;28;20026;-65
2022/08/08 01:49:21;;;;;;;2.25;1.60;;;;;;;16.89;86.29;101719.69;5003602;28;20437;-66
2022/08/08 01:51:57;;;;;;;2.95;1.55;;;;;;;17.00;86.39;101725.25;4997688;28;20038;-66
2022/08/08 01:54:30;;;;;;;4.25;1.80;;;;;;;17.06;86.59;101723.75;5007033;28;20026;-66
2022/08/08 01:57:34;;;;;;;2.85;1.85;;;;;;;17.04;85.94;101724.13;5011019;28;20128;-66
2022/08/08 02:00:18;;;;;;;2.55;1.55;;;;;;;16.92;86.31;101723.59;4992258;28;20034;-66
2022/08/08 02:03:27;;;;;;;3.40;2.08;;;;;;;16.79;86.68;101722.28;5007499;28;20026;-66
2022/08/08 02:06:01;;;;;;;3.67;1.83;;;;;;;16.80;87.09;101716.47;5008366;28;20038;-66
2022/08/08 02:08:35;;;;;;;3.25;1.80;;;;;;;16.73;86.78;101721.81;5010334;28;20135;-66
2022/08/08 02:11:22;;;;;;;3.67;1.75;;;;;;;16.73;87.10;101726.47;5007497;28;20554;-65
2022/08/08 02:14:07;;;;;;;5.35;2.15;;;;;;;16.71;87.03;101721.41;5006045;28;20034;-66
2022/08/08 02:16:43;;;;;;;2.92;1.75;;;;;;;16.55;87.19;101726.25;5008011;28;20402;-66
2022/08/08 02:19:30;;;;;;;2.75;1.58;;;;;;;16.66;87.28;101724.47;5009667;28;20040;-66
2022/08/08 02:25:19;;;;;;;2.97;2.00;;;;;;;16.54;87.21;101718.47;5000805;28;20091;-66
2022/08/08 02:27:53;;;;;;;6.53;1.85;;;;;;;16.50;87.13;101717.63;5007590;28;20498;-66
2022/08/08 02:30:28;;;;;;;1.98;1.52;;;;;;;16.36;88.38;101725.53;5010296;28;20034;-67
2022/08/08 02:33:41;;;;;;;4.28;1.98;;;;;;;16.26;88.11;101725.03;5009415;28;20112;-66
2022/08/08 02:36:25;;;;;;;3.15;1.92;;;;;;;16.12;89.27;101718.63;5010240;28;20026;-66
2022/08/08 02:39:03;;;;;;;3.65;1.60;;;;;;;16.23;88.40;101725.78;5009585;28;20117;-65
2022/08/08 02:41:46;;;;;;;3.17;1.80;;;;;;;16.16;89.01;101714.78;5007740;28;20033;-67
2022/08/08 02:44:30;;;;;;;3.25;1.85;;;;;;;15.84;89.91;101702.66;5009416;28;20034;-66
2022/08/08 02:47:17;;;;;;;2.30;1.55;;;;;;;15.78;90.88;101714.19;5009057;28;20045;-65
2022/08/08 02:50:27;;;;;;;3.28;2.00;;;;;;;15.94;90.62;101717.56;5006100;28;20498;-66
2022/08/08 02:53:32;;;;;;;3.10;1.70;;;;;;;16.02;89.08;101714.59;4998879;28;20038;-65
2022/08/08 02:56:15;;;;;;;3.35;1.42;;;;;;;16.16;88.82;101722.94;4970597;28;20097;-65
2022/08/08 02:58:52;;;;;;;2.92;1.52;;;;;;;16.24;88.06;101721.09;4992935;28;20046;-65
2022/08/08 03:01:40;;;;;;;3.15;1.70;;;;;;;16.18;88.10;101715.22;4993797;28;20037;-65
2022/08/08 03:04:21;;;;;;;3.17;1.73;;;;;;;16.09;88.24;101711.19;5009914;28;20473;-65
2022/08/08 03:07:26;;;;;;;2.30;1.65;;;;;;;15.80;89.17;101707.25;5004654;28;20113;-65
2022/08/08 03:10:19;;;;;;;3.10;1.80;;;;;;;15.88;89.93;101708.13;5005566;28;20514;-64
2022/08/08 03:12:47;;;;;;;;;;;;;;;15.89;89.02;101715.16;4991874;28;20042;-65
2022/08/08 03:15:13;;;;;;;1.42;1.33;;;;;;;15.69;90.39;101719.88;5009311;28;19993;-65
2022/08/08 03:17:46;;;;;;;3.58;2.03;;;;;;;15.70;90.04;101716.00;4990946;28;20053;-66
2022/08/08 03:20:14;;;;;;;3.28;1.85;;;;;;;15.73;90.00;101728.09;4989730;28;20041;-66
2022/08/08 03:22:45;;;;;;;2.85;1.83;;;;;;;15.37;91.40;101722.00;5004699;28;20036;-65
2022/08/08 03:25:14;;;;;;;3.53;2.00;;;;;;;15.37;91.91;101721.22;5009056;28;20129;-64
2022/08/08 03:27:59;;;;;;;4.25;1.98;;;;;;;15.44;91.89;101718.66;5009083;28;20129;-65
2022/08/08 03:30:28;;;;;;;2.95;1.95;;;;;;;15.51;92.25;101720.69;5009432;28;20036;-65
2022/08/08 03:35:40;;;;;;;2.08;1.45;;;;;;;15.85;91.08;101727.91;5029149;28;20425;-66
2022/08/08 03:38:08;;;;;;;4.68;1.77;;;;;;;15.94;90.65;101723.78;5028388;28;20089;-67
2022/08/08 03:40:34;;;;;;;2.38;1.77;;;;;;;15.81;91.30;101729.78;5007405;28;20172;-66
2022/08/08 03:43:05;;;;;;;2.75;1.63;;;;;;;15.89;91.29;101728.75;5010676;28;20033;-66
2022/08/08 03:45:31;;;;;;;4.18;2.25;;;;;;;16.03;91.08;101727.03;5005849;28;20034;-67
2022/08/08 03:48:08;;;;;;;2.42;1.77;;;;;;;16.26;90.00;101733.19;5008200;28;20038;-66
2022/08/08 03:50:47;;;;;;;3.22;1.75;;;;;;;16.45;89.07;101731.53;5008241;28;20025;-66
2022/08/08 03:53:17;;;;;;;4.05;2.10;;;;;;;16.54;88.57;101745.66;5006391;28;20039;-66
2022/08/08 03:55:48;;;;;;;2.75;1.77;;;;;;;16.60;88.55;101739.53;4991396;28;20030;-67
2022/08/08 03:58:19;;;;;;;2.53;1.73;;;;;;;16.69;88.34;101750.13;4989412;28;20066;-66
2022/08/08 04:00:54;;;;;;;2.78;1.58;;;;;;;16.70;87.44;101747.06;4990263;28;20058;-66
2022/08/08 04:03:23;;;;;;;4.10;1.70;;;;;;;16.69;87.67;101758.28;5003545;28;20022;-66
2022/08/08 04:05:49;;;;;;;4.10;2.30;;;;;;;16.73;87.74;101761.84;5008440;28;20513;-66
2022/08/08 04:08:18;;;;;;;3.67;2.10;;;;;;;16.73;87.38;101753.69;5007810;28;20056;-66
2022/08/08 04:10:47;;;;;;;4.75;2.17;;;;;;;16.57;88.68;101750.38;5006709;28;20041;-66
2022/08/08 04:13:13;;;;;;;3.17;1.85;;;;;;;16.49;88.68;101745.97;4990075;28;20084;-66
2022/08/08 04:15:38;;;;;;;4.50;2.08;;;;;;;16.52;88.13;101753.41;5001633;28;20022;-66
2022/08/08 04:18:05;;;;;;;4.18;1.67;;;;;;;16.51;88.47;101754.56;5008228;28;20334;-66
2022/08/08 04:20:31;;;;;;;4.80;2.13;;;;;;;16.67;87.83;101753.22;5008737;28;20030;-66
2022/08/08 04:22:57;;;;;;;3.70;1.92;;;;;;;16.55;88.75;101753.44;5006524;28;20018;-66
2022/08/08 04:25:23;;;;;;;3.97;2.40;;;;;;;16.50;88.46;101758.41;5008892;28;20235;-67
2022/08/08 04:27:48;;;;;;;4.47;2.20;;;;;;;16.55;88.96;101758.13;5008525;28;20041;-66
2022/08/08 04:30:15;;;;;;;3.58;1.73;;;;;;;16.40;89.45;101753.56;5009553;28;20041;-67
2022/08/08 04:32:41;;;;;;;4.20;2.13;;;;;;;16.50;89.74;101761.13;5008581;28;20557;-67
2022/08/08 04:35:07;;;;;;;3.72;2.13;;;;;;;16.45;89.55;101756.78;5024362;28;20041;-66
2022/08/08 04:37:36;;;;;;;8.00;2.10;;;;;;;16.46;89.24;101757.56;5032267;28;20501;-66
2022/08/08 04:40:10;;;;;;;3.03;1.70;;;;;;;16.61;88.79;101754.69;5013647;28;20097;-66
2022/08/08 04:42:42;;;;;;;7.68;2.03;;;;;;;16.57;88.45;101753.09;4993200;28;20453;-67
2022/08/08 04:45:08;;;;;;;3.17;1.73;;;;;;;16.56;89.71;101757.75;4997093;28;20046;-66
2022/08/08 04:47:34;;;;;;;3.33;1.77;;;;;;;16.65;90.08;101754.72;5011136;28;20102;-66
2022/08/08 04:50:00;;;;;;;2.35;1.70;;;;;;;16.50;90.38;101753.78;5012712;28;20066;-66
2022/08/08 04:52:25;;;;;;;3.55;1.65;;;;;;;16.58;90.17;101749.22;5012315;28;20499;-66
2022/08/08 04:54:51;;;;;;;4.38;1.88;;;;;;;16.70;90.44;101751.72;5005010;28;20072;-66
2022/08/08 04:57:17;;;;;;;4.40;2.35;;;;;;;16.67;90.37;101764.09;5012014;28;20479;-67
2022/08/08 04:59:43;;;;;;;4.13;2.45;;;;;;;16.77;90.37;101749.06;5011804;28;20041;-66
2022/08/08 05:02:10;;;;;;;4.07;1.90;;;;;;;16.98;90.30;101752.06;5009485;28;20087;-66
2022/08/08 05:04:35;;;;;;;3.05;1.85;;;;;;;16.98;90.15;101758.28;5011381;28;20030;-67
2022/08/08 05:07:01;;;;;;;2.90;2.10;;;;;;;17.21;90.10;101758.16;5012040;28;20112;-67
2022/08/08 05:09:26;;;;;;;2.22;1.52;;;;;;;17.41;89.31;101761.47;5008054;28;20030;-67
2022/08/08 05:11:52;;;;;;;3.22;1.70;;;;;;;17.58;88.66;101764.41;5009362;28;20049;-66
2022/08/08 05:14:17;;;;;;;2.72;1.77;;;;;;;17.69;88.36;101768.00;5009524;28;20056;-65
2022/08/08 05:16:46;;;;;;;3.17;1.60;;;;;;;17.84;88.26;101760.78;5011725;28;20113;-67
2022/08/08 05:19:12;;;;;;;2.92;2.03;;;;;;;17.96;87.79;101769.44;5012531;28;20117;-66
2022/08/08 05:21:42;;;;;;;2.90;1.40;;;;;;;18.00;86.94;101764.78;5012609;28;20041;-66
2022/08/08 05:24:09;;;;;;;3.20;2.10;;;;;;;18.01;86.46;101765.56;5007859;28;20062;-66
2022/08/08 05:26:37;;;;;;;3.05;1.98;;;;;;;18.15;86.20;101776.59;4992954;28;20096;-66
2022/08/08 05:29:07;;;;;;;2.92;1.55;;;;;;;18.30;86.49;101774.75;4999628;28;20457;-66
2022/08/08 05:31:35;;;;;;;2.47;1.80;;;;;;;18.48;86.58;101775.69;5010010;28;20379;-66
2022/08/08 05:34:04;;;;;;;3.90;1.70;;;;;;;18.64;86.23;101779.66;5012798;28;20042;-66
2022/08/08 05:36:32;;;;;;;4.65;2.13;;;;;;;18.78;86.30;101776.22;5000653;28;20038;-66
2022/08/08 05:38:58;;;;;;;5.88;2.50;;;;;;;18.89;86.32;101785.28;5010177;28;20521;-66
2022/08/08 05:41:24;;;;;;;7.35;2.33;;;;;;;19.12;85.54;101787.72;5011571;28;20044;-66
2022/08/08 05:44:01;;;;;;;4.95;2.33;;;;;;;19.35;84.75;101801.84;5010107;28;20029;-67
2022/08/08 05:46:27;;;;;;;3.08;1.98;;;;;;;19.47;83.14;101791.34;5014444;28;20033;-67
2022/08/08 05:48:54;;;;;;;6.18;2.20;;;;;;;19.48;82.01;101792.13;5010429;28;20041;-66
2022/08/08 05:51:23;;;;;;;6.32;2.00;;;;;;;19.55;81.61;101792.16;5010615;28;20108;-66
2022/08/08 05:53:53;;;;;;;2.67;1.80;;;;;;;19.59;80.45;101793.72;5006109;28;20058;-67
2022/08/08 05:56:20;;;;;;;3.65;1.90;;;;;;;19.61;80.30;101794.13;5009618;28;20038;-66
2022/08/08 05:58:54;;;;;;;2.78;1.58;;;;;;;19.68;79.84;101799.63;5008899;28;20028;-66
2022/08/08 06:01:22;;;;;;;5.50;1.88;;;;;;;19.76;79.22;101805.88;5007869;28;20699;-66
2022/08/08 06:03:50;;;;;;;3.08;1.90;;;;;;;19.80;78.74;101810.16;5006768;28;20030;-66
2022/08/08 06:06:18;;;;;;;3.53;1.92;;;;;;;19.83;79.20;101805.06;5001039;23;20050;-64
2022/08/08 06:08:51;;;;;;;2.45;1.80;;;;;;;19.82;78.67;101804.31;4990023;28;20049;-64
2022/08/08 06:11:38;;;;;;;3.35;1.70;;;;;;;19.82;78.14;101814.47;4989409;28;20465;-64
2022/08/08 06:14:05;;;;;;;3.08;1.73;;;;;;;19.85;77.61;101809.00;4930753;29;20035;-64
2022/08/08 06:16:35;;;;;;;3.15;1.70;;;;;;;19.89;77.49;101814.47;4932247;29;20436;-65
2022/08/08 06:19:15;;;;;;;2.67;1.63;;;;;;;19.89;78.13;101811.72;4918486;29;20475;-64
2022/08/08 06:21:47;;;;;;;4.63;1.80;;;;;;;19.75;78.43;101802.34;4931437;29;20191;-64
2022/08/08 06:24:14;;;;;;;;;;;;;;;19.79;79.54;101810.53;4928021;29;20046;-64
2022/08/08 06:27:09;;;;;;;5.00;1.77;;;;;;;19.82;80.46;101815.25;4930591;29;19921;-64
2022/08/08 06:29:47;;;;;;;2.83;1.70;;;;;;;19.87;80.27;101812.13;4922892;29;20055;-64
2022/08/08 06:32:16;;;;;;;4.82;1.80;;;;;;;20.18;80.87;101818.78;4924552;29;20195;-65
2022/08/08 06:34:48;;;;;;;2.45;1.60;;;;;;;20.52;79.89;101822.69;4923144;29;20032;-64
2022/08/08 06:37:19;;;;;;;2.72;1.48;;;;;;;20.83;79.61;101832.03;4931246;29;20047;-64
2022/08/08 06:39:49;;;;;;;3.33;1.52;;;;;;;21.08;77.99;101830.00;4930869;29;20504;-64
2022/08/08 06:42:17;;;;;;;4.43;1.50;;;;;;;21.30;76.85;101834.22;4930875;29;20044;-65
2022/08/08 06:44:48;;;;;;;4.40;1.33;;;;;;;21.50;74.17;101838.03;4930126;29;20044;-64
2022/08/08 06:47:14;;;;;;;2.47;1.33;;;;;;;21.69;73.06;101837.53;4930386;29;20044;-65
2022/08/08 06:49:41;;;;;;;1.90;1.30;;;;;;;21.88;72.23;101850.75;4922572;29;20079;-64
2022/08/08 06:52:06;;;;;;;1.90;1.20;;;;;;;22.07;70.71;101842.00;4949197;28;20205;-64
2022/08/08 06:54:36;;;;;;;2.08;1.23;;;;;;;22.28;69.97;101846.53;4968712;28;20527;-65
2022/08/08 06:57:02;;;;;;;1.85;1.08;;;;;;;22.45;69.68;101851.09;4953509;28;20062;-64
2022/08/08 06:59:28;;;;;;;2.10;1.20;;;;;;;22.62;69.02;101841.94;4949417;28;20435;-64
2022/08/08 07:02:01;;;;;;;4.85;1.23;;;;;;;22.67;67.04;101846.19;4936820;28;20054;-64
2022/08/08 07:04:43;;;;;;;2.13;1.38;;;;;;;22.68;66.88;101843.06;4948215;28;20082;-64
2022/08/08 07:07:15;;;;;;;2.92;1.20;;;;;;;22.88;65.11;101843.25;4977776;28;20046;-64
2022/08/08 07:10:06;;;;;;;1.13;1.02;;;;;;;23.04;61.93;101844.22;4988328;28;20104;-64
2022/08/08 07:12:43;;;;;;;1.05;0.95;;;;;;;23.17;61.06;101841.72;4989053;28;20396;-64
2022/08/08 07:15:14;;;;;;;2.15;1.20;;;;;;;23.31;62.52;101841.56;4989734;28;20116;-63
2022/08/08 07:17:48;;;;;;;1.20;0.82;;;;;;;23.46;61.85;101853.16;4990281;28;20538;-64
2022/08/08 07:20:20;;;;;;;1.60;0.82;;;;;;;23.67;61.42;101848.16;4990018;28;20034;-64
2022/08/08 07:22:59;;;;;;;;;;;;;;;23.86;60.61;101847.47;4970025;28;20062;-65
2022/08/08 07:25:26;;;;;;;1.13;0.73;;;;;;;24.10;59.13;101843.56;4966099;28;19913;-64
2022/08/08 07:28:02;;;;;;;1.42;0.93;;;;;;;24.22;56.75;101861.47;4987613;28;20022;-64
2022/08/08 07:30:28;;;;;;;1.00;0.73;;;;;;;24.28;55.93;101856.28;4989824;28;20038;-64
2022/08/08 07:32:56;;;;;;;1.08;0.70;;;;;;;24.41;56.88;101849.75;4988432;28;20411;-64
2022/08/08 07:35:24;;;;;;;1.38;0.88;;;;;;;24.50;56.92;101854.72;4990337;28;20506;-64
2022/08/08 07:37:51;;;;;;;1.30;0.73;;;;;;;24.60;55.85;101859.28;4985652;28;20035;-64
2022/08/08 07:40:23;;;;;;;1.15;0.60;;;;;;;24.67;53.63;101854.41;4989810;28;20037;-64
2022/08/08 07:42:52;;;;;;;0.70;0.50;;;;;;;24.59;55.10;101858.47;4988980;28;20038;-64
2022/08/08 07:45:18;;;;;;;1.15;0.60;;;;;;;24.76;54.45;101867.66;4989123;28;20081;-64
2022/08/08 07:47:45;;;;;;;2.33;0.90;;;;;;;24.80;52.93;101857.34;4987525;28;20495;-64
2022/08/08 07:50:11;;;;;;;1.08;0.85;;;;;;;24.96;54.12;101860.19;4989145;28;20081;-64
2022/08/08 07:52:43;;;;;;;2.58;0.70;;;;;;;25.11;52.75;101861.44;4986519;28;20786;-64
2022/08/08 07:55:20;;;;;;;1.37;0.80;;;;;;;25.37;52.12;101868.81;4990130;28;20046;-65
2022/08/08 07:57:48;;;;;;;0.70;0.50;;;;;;;25.48;51.51;101869.38;4987019;28;20089;-65
2022/08/08 08:00:16;;;;;;;1.30;0.73;;;;;;;25.71;51.29;101877.53;4986272;28;20046;-65
2022/08/08 08:03:04;;;;;;;1.98;0.90;;;;;;;25.19;48.91;101871.13;4987071;28;20128;-65
2022/08/08 08:05:36;;;;;;;1.65;0.70;;;;;;;25.02;50.02;101867.53;4983160;28;20534;-64
2022/08/08 08:08:18;;;;;;;0.90;0.80;;;;;;;25.42;51.50;101871.06;4987057;28;20653;-65
2022/08/08 08:10:50;;;;;;;2.25;0.90;;;;;;;25.72;51.26;101881.09;4991854;28;20100;-64
2022/08/08 08:13:33;;;;;;;4.38;0.70;;;;;;;25.62;49.40;101880.13;4992966;28;20035;-65
2022/08/08 08:16:02;;;;;;;0.90;0.68;;;;;;;25.82;48.97;101882.84;4994009;28;20168;-65
2022/08/08 08:18:37;;;;;;;1.40;0.80;;;;;;;26.08;48.30;101883.81;4992482;28;20030;-64
2022/08/08 08:21:05;;;;;;;1.13;0.80;;;;;;;26.29;48.33;101878.56;4993433;28;20042;-64
2022/08/08 08:23:30;;;;;;;0.95;0.85;;;;;;;26.17;46.68;101881.25;4991677;28;20014;-65
2022/08/08 08:25:56;;;;;;;1.23;0.90;;;;;;;26.10;47.20;101878.63;4993401;28;20038;-65
2022/08/08 08:28:23;;;;;;;0.93;0.60;;;;;;;26.56;48.40;101884.56;4993771;28;20072;-65
2022/08/08 08:30:49;;;;;;;1.15;0.88;;;;;;;26.84;48.34;101891.38;4992791;28;20038;-65
2022/08/08 08:33:14;;;;;;;0.88;0.70;;;;;;;26.93;48.16;101880.44;4989808;28;20037;-65
2022/08/08 08:35:40;;;;;;;0.88;0.68;;;;;;;26.86;48.72;101885.41;4994039;28;20081;-65
2022/08/08 08:38:05;;;;;;;2.28;0.65;;;;;;;26.92;47.76;101880.91;4991409;28;20093;-65
2022/08/08 08:40:32;;;;;;;0.70;0.70;;;;;;;26.87;47.51;101873.91;4992407;28;20031;-65
2022/08/08 08:42:59;;;;;;;0.73;0.70;;;;;;;27.12;47.60;101889.84;4976050;28;20027;-65
2022/08/08 08:45:25;;;;;;;0.93;0.63;;;;;;;27.27;46.88;101890.97;4989805;28;20244;-66
2022/08/08 08:47:54;;;;;;;1.10;0.82;;;;;;;27.25;47.35;101888.66;4990411;28;20045;-65
2022/08/08 08:50:24;;;;;;;1.67;0.90;;;;;;;27.28;47.07;101896.06;4991599;28;20704;-65
2022/08/08 08:52:51;;;;;;;1.00;0.70;;;;;;;27.40;46.14;101900.09;4993287;28;20080;-65
2022/08/08 08:55:18;;;;;;;0.80;0.65;;;;;;;27.45;46.18;101902.31;4991986;28;20066;-65
2022/08/08 08:57:48;;;;;;;1.23;0.85;;;;;;;27.46;45.97;101901.91;4990711;28;20030;-65
2022/08/08 09:00:14;;;;;;;1.63;0.63;;;;;;;27.35;46.51;101895.88;4992076;28;20065;-65
2022/08/08 09:02:41;;;;;;;3.45;0.75;;;;;;;27.64;46.42;101902.13;4992185;28;20096;-65
2022/08/08 09:05:08;;;;;;;0.63;0.60;;;;;;;27.80;45.76;101894.97;4992177;28;20041;-65
2022/08/08 09:07:35;;;;;;;1.45;0.70;;;;;;;27.91;45.92;101896.19;4988019;28;20048;-64
2022/08/08 09:10:03;;;;;;;1.40;0.75;;;;;;;28.16;45.49;101903.72;4992027;28;20624;-65
2022/08/08 09:12:37;;;;;;;0.75;0.63;;;;;;;28.32;44.74;101900.81;4991453;28;20038;-65
2022/08/08 09:15:04;;;;;;;1.25;0.80;;;;;;;28.46;44.12;101898.34;4985352;28;20038;-65
2022/08/08 09:17:35;;;;;;;1.30;0.73;;;;;;;28.29;43.74;101896.94;4990485;28;20034;-65
2022/08/08 09:20:02;;;;;;;3.10;0.80;;;;;;;28.55;44.00;101894.94;4991731;28;20049;-65
2022/08/08 09:22:28;;;;;;;1.08;0.85;;;;;;;28.61;44.15;101895.13;4987343;28;20514;-65
2022/08/08 09:24:56;;;;;;;1.15;0.60;;;;;;;28.86;43.23;101897.81;5006870;28;20431;-65
2022/08/08 09:27:22;;;;;;;1.15;0.60;;;;;;;29.01;42.45;101887.75;4991030;28;20517;-65
2022/08/08 09:30:09;;;;;;;1.00;0.70;;;;;;;28.32;41.65;101886.97;4974647;28;20431;-65
2022/08/08 09:32:48;;;;;;;1.55;0.95;;;;;;;27.92;42.96;101889.41;4990929;28;20080;-65
2022/08/08 09:35:19;;;;;;;0.60;0.60;;;;;;;28.40;44.18;101883.50;4992783;28;20574;-65
2022/08/08 09:37:52;;;;;;;5.90;1.55;;;;;;;28.58;44.07;101894.00;4990944;28;20478;-65
2022/08/08 09:40:25;;;;;;;1.60;1.00;;;;;;;28.79;44.16;101892.50;4991791;28;20038;-65
2022/08/08 09:43:27;;;;;;;1.15;0.90;;;;;;;29.06;42.88;101889.94;4988703;28;20097;-65
2022/08/08 09:46:00;;;;;;;1.17;0.73;;;;;;;29.20;42.43;101886.66;4989663;28;20042;-65
2022/08/08 09:48:34;;;;;;;1.05;0.85;;;;;;;29.25;42.18;101886.84;4987595;28;20046;-65
2022/08/08 09:51:01;;;;;;;0.98;0.77;;;;;;;29.24;42.84;101890.09;4988562;28;20383;-65
2022/08/08 09:53:46;;;;;;;0.95;0.68;;;;;;;29.03;43.15;101890.84;4991529;28;20030;-65
2022/08/08 09:56:14;;;;;;;1.15;0.68;;;;;;;28.60;43.15;101888.78;4992489;28;20046;-65
2022/08/08 09:58:52;;;;;;;0.77;0.60;;;;;;;28.38;44.16;101885.94;4987825;28;20034;-65
2022/08/08 10:01:21;;;;;;;1.10;0.75;;;;;;;28.24;44.17;101888.41;4990848;28;20503;-65
2022/08/08 10:03:49;;;;;;;0.60;0.60;;;;;;;28.17;44.58;101883.09;4987181;28;20134;-65
2022/08/08 10:06:17;;;;;;;1.00;0.77;;;;;;;28.03;44.78;101884.31;4992190;28;20133;-65
2022/08/08 10:08:47;;;;;;;0.95;0.85;;;;;;;27.92;44.92;101886.63;4990193;28;20105;-65
2022/08/08 10:11:19;;;;;;;1.48;0.85;;;;;;;27.83;45.20;101889.31;4991261;28;20030;-65
2022/08/08 10:13:53;;;;;;;1.52;0.85;;;;;;;27.72;45.81;101883.31;4991918;28;20026;-65
2022/08/08 10:16:20;;;;;;;1.50;0.90;;;;;;;27.58;44.77;101881.00;4992442;28;20042;-65
2022/08/08 10:18:45;;;;;;;0.85;0.80;;;;;;;27.53;45.38;101885.06;4991011;28;20022;-65
2022/08/08 10:21:12;;;;;;;1.00;0.70;;;;;;;27.63;45.54;101885.97;4989137;28;20039;-65
2022/08/08 10:23:44;;;;;;;1.65;1.00;;;;;;;27.55;43.93;101879.09;4990374;28;20072;-65
2022/08/08 10:26:24;;;;;;;2.03;1.00;;;;;;;27.45;44.50;101872.66;4974366;28;20089;-66
2022/08/08 10:28:55;;;;;;;1.40;0.87;;;;;;;27.66;43.95;101869.22;4989209;28;20062;-65
2022/08/08 10:34:18;;;;;;;1.30;0.90;;;;;;;28.10;44.92;101863.94;4988976;28;20511;-65
2022/08/08 10:36:45;;;;;;;1.10;0.75;;;;;;;28.23;44.52;101868.22;4991224;28;20509;-65
2022/08/08 10:39:18;;;;;;;1.90;0.80;;;;;;;28.40;44.25;101880.72;4990840;28;20046;-65
2022/08/08 10:41:55;;;;;;;2.28;0.75;;;;;;;28.47;44.51;101872.16;4990302;28;20041;-65
2022/08/08 10:44:33;;;;;;;3.47;0.80;;;;;;;28.47;46.55;101882.50;4991148;28;20038;-65
2022/08/08 10:47:16;;;;;;;2.05;0.85;;;;;;;28.14;47.52;101875.69;4991617;28;20041;-65
2022/08/08 10:49:57;;;;;;;0.68;0.65;;;;;;;28.22;48.21;101879.78;4986189;28;20457;-65
2022/08/08 10:52:25;;;;;;;3.05;0.70;;;;;;;28.12;49.15;101881.66;4989385;28;20056;-65
2022/08/08 10:54:59;;;;;;;0.77;0.50;;;;;;;28.16;48.90;101881.56;4990009;28;20208;-65
2022/08/08 10:57:25;;;;;;;1.50;0.80;;;;;;;28.18;48.94;101877.13;4987779;28;20519;-65
2022/08/08 10:59:58;;;;;;;0.95;0.68;;;;;;;28.17;48.38;101878.31;4982059;28;20025;-66
2022/08/08 11:02:29;;;;;;;1.10;0.80;;;;;;;28.15;48.09;101880.00;4984928;28;20045;-65
2022/08/08 11:04:59;;;;;;;1.10;0.77;;;;;;;28.16;48.29;101876.00;4971511;28;20034;-65
2022/08/08 11:07:34;;;;;;;0.80;0.60;;;;;;;28.20;47.77;101869.09;4986007;28;20034;-65
2022/08/08 11:10:03;;;;;;;2.05;0.80;;;;;;;28.30;48.32;101875.53;4987713;28;20441;-65
2022/08/08 11:12:31;;;;;;;1.83;1.00;;;;;;;28.33;48.65;101878.19;4989952;28;20042;-65
2022/08/08 11:14:59;;;;;;;1.00;0.70;;;;;;;28.43;48.28;101876.28;4985313;28;20407;-65
2022/08/08 11:17:35;;;;;;;1.88;1.05;;;;;;;28.38;47.85;101882.38;4987226;28;20034;-64
2022/08/08 11:20:03;;;;;;;1.60;0.80;;;;;;;28.32;47.58;101881.41;4990566;28;20417;-65
2022/08/08 11:22:32;;;;;;;1.63;0.70;;;;;;;28.24;47.01;101875.31;4987315;28;20113;-65
2022/08/08 11:25:00;;;;;;;0.90;0.80;;;;;;;28.26;46.77;101872.88;4990736;28;20038;-65
2022/08/08 11:27:31;;;;;;;0.90;0.60;;;;;;;28.27;47.15;101882.75;4988418;28;20034;-65
2022/08/08 11:29:58;;;;;;;0.75;0.68;;;;;;;28.26;47.79;101885.97;4985346;28;20042;-64
2022/08/08 11:32:26;;;;;;;1.58;0.90;;;;;;;28.24;48.22;101878.09;4982426;28;20026;-65
2022/08/08 11:35:03;;;;;;;1.75;0.70;;;;;;;28.26;47.65;101880.44;4991399;28;20034;-65
2022/08/08 11:37:30;;;;;;;2.05;0.70;;;;;;;28.26;47.86;101883.97;4982089;28;20585;-64
2022/08/08 11:39:57;;;;;;;1.63;1.13;;;;;;;28.27;47.08;101881.97;4987734;28;20056;-65
2022/08/08 11:42:24;;;;;;;0.82;0.65;;;;;;;28.20;47.40;101880.19;4991164;28;20030;-65
2022/08/08 11:44:51;;;;;;;0.90;0.68;;;;;;;28.15;47.19;101877.22;4988940;28;20061;-65
2022/08/08 11:47:17;;;;;;;1.10;0.70;;;;;;;28.02;47.29;101880.00;4989836;28;20030;-65
2022/08/08 11:49:46;;;;;;;0.65;0.57;;;;;;;28.06;47.18;101880.69;4983874;28;20043;-65
2022/08/08 11:52:12;;;;;;;4.00;1.10;;;;;;;28.08;47.08;101883.78;4987315;28;20486;-64
2022/08/08 11:54:43;;;;;;;2.88;0.70;;;;;;;28.11;47.53;101885.66;4985386;28;20050;-64
2022/08/08 11:57:11;;;;;;;0.88;0.68;;;;;;;28.14;46.71;101882.00;4988793;28;20046;-65
2022/08/08 11:59:46;;;;;;;1.77;0.88;;;;;;;28.15;46.60;101871.66;4985606;28;20026;-65
2022/08/08 12:02:12;;;;;;;2.72;0.88;;;;;;;28.15;46.60;101878.00;4988385;28;20116;-65
2022/08/08 12:04:38;;;;;;;1.63;0.80;;;;;;;28.18;45.91;101877.13;4988516;28;20030;-65
2022/08/08 12:07:07;;;;;;;1.65;0.70;;;;;;;28.20;46.03;101880.19;4991141;28;20402;-65
2022/08/08 12:09:37;;;;;;;0.75;0.70;;;;;;;28.28;46.38;101891.84;4989203;28;20610;-65